sensor_id;sensor_type;location;lat;lon;timestamp;temperature;humidity
15357;DHT22;7778;48.792;9.260;2023-02-01T00:00:12;4.20;99.90
15357;DHT22;7778;48.792;9.260;2023-02-01T00:02:58;4.20;99.90
15357;DHT22;7778;48.792;9.260;2023-02-01T00:05:44;4.30;99.90
15357;DHT22;7778;48.792;9.260;2023-02-01T00:08:29;4.30;99.90
15357;DHT22;7778;48.792;9.260;2023-02-01T00:11:15;4.30;99.90
15357;DHT22;7778;48.792;9.260;2023-02-01T00:14:00;4.30;99.90
15357;DHT22;7778;48.792;9.260;2023-02-01T00:16:47;4.30;99.90
15357;DHT22;7778;48.792;9.260;2023-02-01T00:19:33;4.20;99.90
15357;DHT22;7778;48.792;9.260;2023-02-01T00:22:19;4.20;99.90
15357;DHT22;7778;48.792;9.260;2023-02-01T00:25:06;4.20;99.90
15357;DHT22;7778;48.792;9.260;2023-02-01T00:27:52;4.20;99.90
15357;DHT22;7778;48.792;9.260;2023-02-01T00:30:37;4.30;99.90
15357;DHT22;7778;48.792;9.260;2023-02-01T00:33:24;4.20;99.90
15357;DHT22;7778;48.792;9.260;2023-02-01T00:36:10;4.20;99.90
15357;DHT22;7778;48.792;9.260;2023-02-01T00:38:55;4.10;99.90
15357;DHT22;7778;48.792;9.260;2023-02-01T00:41:41;4.20;99.90
15357;DHT22;7778;48.792;9.260;2023-02-01T00:44:27;4.20;99.90
15357;DHT22;7778;48.792;9.260;2023-02-01T00:47:17;4.20;99.90
15357;DHT22;7778;48.792;9.260;2023-02-01T00:50:06;4.20;99.90
15357;DHT22;7778;48.792;9.260;2023-02-01T00:52:52;4.20;99.90
15357;DHT22;7778;48.792;9.260;2023-02-01T00:55:38;4.20;99.90
15357;DHT22;7778;48.792;9.260;2023-02-01T00:58:23;4.20;99.90
15357;DHT22;7778;48.792;9.260;2023-02-01T01:01:11;4.20;99.90
15357;DHT22;7778;48.792;9.260;2023-02-01T01:03:59;4.30;99.90
15357;DHT22;7778;48.792;9.260;2023-02-01T01:06:47;4.20;99.90
15357;DHT22;7778;48.792;9.260;2023-02-01T01:09:32;4.30;99.90
15357;DHT22;7778;48.792;9.260;2023-02-01T01:12:18;4.30;99.90
15357;DHT22;7778;48.792;9.260;2023-02-01T01:15:04;4.20;99.90
15357;DHT22;7778;48.792;9.260;2023-02-01T01:17:50;4.20;99.90
15357;DHT22;7778;48.792;9.260;2023-02-01T01:20:37;4.20;99.90
15357;DHT22;7778;48.792;9.260;2023-02-01T01:23:26;4.20;99.90
15357;DHT22;7778;48.792;9.260;2023-02-01T01:26:14;4.30;99.90
15357;DHT22;7778;48.792;9.260;2023-02-01T01:29:01;4.10;99.90
15357;DHT22;7778;48.792;9.260;2023-02-01T01:31:47;4.10;99.90
15357;DHT22;7778;48.792;9.260;2023-02-01T01:34:33;4.10;99.90
15357;DHT22;7778;48.792;9.260;2023-02-01T01:37:18;4.00;99.90
15357;DHT22;7778;48.792;9.260;2023-02-01T01:40:08;4.20;99.90
15357;DHT22;7778;48.792;9.260;2023-02-01T01:42:55;4.10;99.90
15357;DHT22;7778;48.792;9.260;2023-02-01T01:45:42;4.20;99.90
15357;DHT22;7778;48.792;9.260;2023-02-01T01:48:29;4.20;99.90
15357;DHT22;7778;48.792;9.260;2023-02-01T01:51:18;4.20;99.90
15357;DHT22;7778;48.792;9.260;2023-02-01T01:54:11;4.40;99.90
15357;DHT22;7778;48.792;9.260;2023-02-01T01:57:06;4.20;99.90
15357;DHT22;7778;48.792;9.260;2023-02-01T02:00:00;4.20;99.90
15357;DHT22;7778;48.792;9.260;2023-02-01T02:02:54;4.20;99.90
15357;DHT22;7778;48.792;9.260;2023-02-01T02:05:43;4.20;99.90
15357;DHT22;7778;48.792;9.260;2023-02-01T02:08:29;4.20;99.90
15357;DHT22;7778;48.792;9.260;2023-02-01T02:11:16;4.20;99.90
15357;DHT22;7778;48.792;9.260;2023-02-01T02:14:06;4.30;99.90
15357;DHT22;7778;48.792;9.260;2023-02-01T02:17:01;4.50;99.90
15357;DHT22;7778;48.792;9.260;2023-02-01T02:23:47;4.30;99.90
15357;DHT22;7778;48.792;9.260;2023-02-01T02:27:14;4.30;99.90
15357;DHT22;7778;48.792;9.260;2023-02-01T02:30:28;4.30;99.90
15357;DHT22;7778;48.792;9.260;2023-02-01T02:33:48;4.30;99.90
15357;DHT22;7778;48.792;9.260;2023-02-01T02:36:43;4.30;99.90
15357;DHT22;7778;48.792;9.260;2023-02-01T02:39:44;4.30;99.90
15357;DHT22;7778;48.792;9.260;2023-02-01T02:42:39;4.30;99.90
15357;DHT22;7778;48.792;9.260;2023-02-01T02:45:50;4.40;99.90
15357;DHT22;7778;48.792;9.260;2023-02-01T02:49:02;4.40;99.90
15357;DHT22;7778;48.792;9.260;2023-02-01T02:51:55;4.40;99.90
15357;DHT22;7778;48.792;9.260;2023-02-01T02:55:03;4.40;99.90
15357;DHT22;7778;48.792;9.260;2023-02-01T02:57:50;4.40;99.90
15357;DHT22;7778;48.792;9.260;2023-02-01T03:00:54;4.40;99.90
15357;DHT22;7778;48.792;9.260;2023-02-01T03:03:59;4.40;99.90
15357;DHT22;7778;48.792;9.260;2023-02-01T03:06:53;4.40;99.90
15357;DHT22;7778;48.792;9.260;2023-02-01T03:09:40;4.40;99.90
15357;DHT22;7778;48.792;9.260;2023-02-01T03:12:27;4.50;99.90
15357;DHT22;7778;48.792;9.260;2023-02-01T03:15:36;4.40;99.90
15357;DHT22;7778;48.792;9.260;2023-02-01T03:18:28;4.40;99.90
15357;DHT22;7778;48.792;9.260;2023-02-01T03:21:20;4.40;99.90
15357;DHT22;7778;48.792;9.260;2023-02-01T03:24:11;4.40;99.90
15357;DHT22;7778;48.792;9.260;2023-02-01T03:27:05;4.40;99.90
15357;DHT22;7778;48.792;9.260;2023-02-01T03:29:58;4.50;99.90
15357;DHT22;7778;48.792;9.260;2023-02-01T03:32:48;4.30;99.90
15357;DHT22;7778;48.792;9.260;2023-02-01T03:35:50;4.30;99.90
15357;DHT22;7778;48.792;9.260;2023-02-01T03:38:47;4.30;99.90
15357;DHT22;7778;48.792;9.260;2023-02-01T03:41:40;4.30;99.90
15357;DHT22;7778;48.792;9.260;2023-02-01T03:44:30;4.50;99.90
15357;DHT22;7778;48.792;9.260;2023-02-01T03:47:21;4.20;99.90
15357;DHT22;7778;48.792;9.260;2023-02-01T03:50:12;4.30;99.90
15357;DHT22;7778;48.792;9.260;2023-02-01T03:53:02;4.30;99.90
15357;DHT22;7778;48.792;9.260;2023-02-01T03:55:53;4.30;99.90
15357;DHT22;7778;48.792;9.260;2023-02-01T03:58:39;4.30;99.90
15357;DHT22;7778;48.792;9.260;2023-02-01T04:01:26;4.30;99.90
15357;DHT22;7778;48.792;9.260;2023-02-01T04:04:12;4.30;99.90
15357;DHT22;7778;48.792;9.260;2023-02-01T04:07:04;4.30;99.90
15357;DHT22;7778;48.792;9.260;2023-02-01T04:09:49;4.30;99.90
15357;DHT22;7778;48.792;9.260;2023-02-01T04:12:36;4.40;99.90
15357;DHT22;7778;48.792;9.260;2023-02-01T04:15:21;4.40;99.90
15357;DHT22;7778;48.792;9.260;2023-02-01T04:18:07;4.40;99.90
15357;DHT22;7778;48.792;9.260;2023-02-01T04:20:52;4.40;99.90
15357;DHT22;7778;48.792;9.260;2023-02-01T04:23:38;4.40;99.90
15357;DHT22;7778;48.792;9.260;2023-02-01T04:26:24;4.40;99.90
15357;DHT22;7778;48.792;9.260;2023-02-01T04:29:10;4.40;99.90
15357;DHT22;7778;48.792;9.260;2023-02-01T04:31:56;4.40;99.90
15357;DHT22;7778;48.792;9.260;2023-02-01T04:34:43;4.40;99.90
15357;DHT22;7778;48.792;9.260;2023-02-01T04:37:28;4.50;99.90
15357;DHT22;7778;48.792;9.260;2023-02-01T04:40:14;4.40;99.90
15357;DHT22;7778;48.792;9.260;2023-02-01T04:43:00;4.40;99.90
15357;DHT22;7778;48.792;9.260;2023-02-01T04:45:49;4.50;99.90
15357;DHT22;7778;48.792;9.260;2023-02-01T04:48:35;4.40;99.90
15357;DHT22;7778;48.792;9.260;2023-02-01T04:51:21;4.40;99.90
15357;DHT22;7778;48.792;9.260;2023-02-01T04:54:07;4.30;99.90
15357;DHT22;7778;48.792;9.260;2023-02-01T04:56:55;4.30;99.90
15357;DHT22;7778;48.792;9.260;2023-02-01T04:59:40;4.30;99.90
15357;DHT22;7778;48.792;9.260;2023-02-01T05:02:28;4.30;99.90
15357;DHT22;7778;48.792;9.260;2023-02-01T05:05:13;4.40;99.90
15357;DHT22;7778;48.792;9.260;2023-02-01T05:07:59;4.40;99.90
15357;DHT22;7778;48.792;9.260;2023-02-01T05:10:45;4.40;99.90
15357;DHT22;7778;48.792;9.260;2023-02-01T05:13:31;4.40;99.90
15357;DHT22;7778;48.792;9.260;2023-02-01T05:16:34;4.40;99.90
15357;DHT22;7778;48.792;9.260;2023-02-01T05:19:20;4.40;99.90
15357;DHT22;7778;48.792;9.260;2023-02-01T05:22:06;4.40;99.90
15357;DHT22;7778;48.792;9.260;2023-02-01T05:24:52;4.50;99.90
15357;DHT22;7778;48.792;9.260;2023-02-01T05:27:37;4.50;99.90
15357;DHT22;7778;48.792;9.260;2023-02-01T05:30:23;4.50;99.90
15357;DHT22;7778;48.792;9.260;2023-02-01T05:33:08;4.50;99.90
15357;DHT22;7778;48.792;9.260;2023-02-01T05:35:55;4.50;99.90
15357;DHT22;7778;48.792;9.260;2023-02-01T05:38:40;4.50;99.90
15357;DHT22;7778;48.792;9.260;2023-02-01T05:41:26;4.50;99.90
15357;DHT22;7778;48.792;9.260;2023-02-01T05:44:12;4.60;99.90
15357;DHT22;7778;48.792;9.260;2023-02-01T05:46:57;4.60;99.90
15357;DHT22;7778;48.792;9.260;2023-02-01T05:49:43;4.60;99.90
15357;DHT22;7778;48.792;9.260;2023-02-01T05:52:30;4.60;99.90
15357;DHT22;7778;48.792;9.260;2023-02-01T05:55:16;4.60;99.90
15357;DHT22;7778;48.792;9.260;2023-02-01T05:58:01;4.60;99.90
15357;DHT22;7778;48.792;9.260;2023-02-01T06:00:47;4.60;99.90
15357;DHT22;7778;48.792;9.260;2023-02-01T06:03:32;4.60;99.90
15357;DHT22;7778;48.792;9.260;2023-02-01T06:06:18;4.60;99.90
15357;DHT22;7778;48.792;9.260;2023-02-01T06:09:05;4.50;99.90
15357;DHT22;7778;48.792;9.260;2023-02-01T06:11:51;4.50;99.90
15357;DHT22;7778;48.792;9.260;2023-02-01T06:14:36;4.50;99.90
15357;DHT22;7778;48.792;9.260;2023-02-01T06:17:22;4.50;99.90
15357;DHT22;7778;48.792;9.260;2023-02-01T06:20:09;4.50;99.90
15357;DHT22;7778;48.792;9.260;2023-02-01T06:22:55;4.50;99.90
15357;DHT22;7778;48.792;9.260;2023-02-01T06:25:42;4.50;99.90
15357;DHT22;7778;48.792;9.260;2023-02-01T06:28:30;4.50;99.90
15357;DHT22;7778;48.792;9.260;2023-02-01T06:31:16;4.40;99.90
15357;DHT22;7778;48.792;9.260;2023-02-01T06:34:02;4.50;99.90
15357;DHT22;7778;48.792;9.260;2023-02-01T06:36:48;4.50;99.90
15357;DHT22;7778;48.792;9.260;2023-02-01T06:39:34;4.50;99.90
15357;DHT22;7778;48.792;9.260;2023-02-01T06:42:21;4.50;99.90
15357;DHT22;7778;48.792;9.260;2023-02-01T06:45:07;4.50;99.90
15357;DHT22;7778;48.792;9.260;2023-02-01T06:47:53;4.50;99.90
15357;DHT22;7778;48.792;9.260;2023-02-01T06:50:39;4.50;99.90
15357;DHT22;7778;48.792;9.260;2023-02-01T06:53:25;4.60;99.90
15357;DHT22;7778;48.792;9.260;2023-02-01T06:56:11;4.70;99.90
15357;DHT22;7778;48.792;9.260;2023-02-01T06:58:58;4.70;99.90
15357;DHT22;7778;48.792;9.260;2023-02-01T07:01:44;4.70;99.90
15357;DHT22;7778;48.792;9.260;2023-02-01T07:04:30;4.60;99.90
15357;DHT22;7778;48.792;9.260;2023-02-01T07:07:16;4.60;99.90
15357;DHT22;7778;48.792;9.260;2023-02-01T07:10:04;4.70;99.90
15357;DHT22;7778;48.792;9.260;2023-02-01T07:12:50;4.70;99.90
15357;DHT22;7778;48.792;9.260;2023-02-01T07:15:37;4.80;99.90
15357;DHT22;7778;48.792;9.260;2023-02-01T07:18:22;4.80;99.90
15357;DHT22;7778;48.792;9.260;2023-02-01T07:21:08;4.90;99.90
15357;DHT22;7778;48.792;9.260;2023-02-01T07:23:53;5.00;99.90
15357;DHT22;7778;48.792;9.260;2023-02-01T07:26:39;5.10;99.90
15357;DHT22;7778;48.792;9.260;2023-02-01T07:29:25;5.00;99.90
15357;DHT22;7778;48.792;9.260;2023-02-01T07:32:11;5.10;99.90
15357;DHT22;7778;48.792;9.260;2023-02-01T07:34:57;5.10;99.90
15357;DHT22;7778;48.792;9.260;2023-02-01T07:37:43;5.10;99.90
15357;DHT22;7778;48.792;9.260;2023-02-01T07:40:28;5.20;99.90
15357;DHT22;7778;48.792;9.260;2023-02-01T07:43:14;5.10;99.90
15357;DHT22;7778;48.792;9.260;2023-02-01T07:46:00;5.30;99.90
15357;DHT22;7778;48.792;9.260;2023-02-01T07:52:47;5.10;99.90
15357;DHT22;7778;48.792;9.260;2023-02-01T07:55:33;5.30;99.90
15357;DHT22;7778;48.792;9.260;2023-02-01T07:58:18;5.20;99.90
15357;DHT22;7778;48.792;9.260;2023-02-01T08:01:04;5.10;99.90
15357;DHT22;7778;48.792;9.260;2023-02-01T08:04:05;5.10;99.90
15357;DHT22;7778;48.792;9.260;2023-02-01T08:06:50;5.10;99.90
15357;DHT22;7778;48.792;9.260;2023-02-01T08:09:37;5.20;99.90
15357;DHT22;7778;48.792;9.260;2023-02-01T08:12:23;5.10;99.90
15357;DHT22;7778;48.792;9.260;2023-02-01T08:15:09;5.20;99.90
15357;DHT22;7778;48.792;9.260;2023-02-01T08:17:56;5.20;99.90
15357;DHT22;7778;48.792;9.260;2023-02-01T08:20:42;5.30;99.90
15357;DHT22;7778;48.792;9.260;2023-02-01T08:23:29;5.30;99.90
15357;DHT22;7778;48.792;9.260;2023-02-01T08:26:18;5.30;99.90
15357;DHT22;7778;48.792;9.260;2023-02-01T08:29:06;5.30;99.90
15357;DHT22;7778;48.792;9.260;2023-02-01T08:31:53;5.30;99.90
15357;DHT22;7778;48.792;9.260;2023-02-01T08:34:39;5.50;99.90
15357;DHT22;7778;48.792;9.260;2023-02-01T08:37:24;5.60;99.90
15357;DHT22;7778;48.792;9.260;2023-02-01T08:40:10;5.50;99.90
15357;DHT22;7778;48.792;9.260;2023-02-01T08:42:59;5.50;99.90
15357;DHT22;7778;48.792;9.260;2023-02-01T08:45:45;5.60;99.90
15357;DHT22;7778;48.792;9.260;2023-02-01T08:48:30;5.70;99.90
15357;DHT22;7778;48.792;9.260;2023-02-01T08:51:19;5.90;99.90
15357;DHT22;7778;48.792;9.260;2023-02-01T08:54:06;5.90;99.90
15357;DHT22;7778;48.792;9.260;2023-02-01T08:56:52;6.00;99.90
15357;DHT22;7778;48.792;9.260;2023-02-01T08:59:40;5.90;99.90
15357;DHT22;7778;48.792;9.260;2023-02-01T09:02:27;5.90;99.90
15357;DHT22;7778;48.792;9.260;2023-02-01T09:05:13;5.90;99.90
15357;DHT22;7778;48.792;9.260;2023-02-01T09:08:00;5.70;99.90
15357;DHT22;7778;48.792;9.260;2023-02-01T09:10:46;5.80;99.90
15357;DHT22;7778;48.792;9.260;2023-02-01T09:13:32;5.80;99.90
15357;DHT22;7778;48.792;9.260;2023-02-01T09:16:20;5.80;99.90
15357;DHT22;7778;48.792;9.260;2023-02-01T09:19:06;5.80;99.90
15357;DHT22;7778;48.792;9.260;2023-02-01T09:21:51;5.90;99.90
15357;DHT22;7778;48.792;9.260;2023-02-01T09:24:37;5.90;99.90
15357;DHT22;7778;48.792;9.260;2023-02-01T09:27:22;5.90;99.90
15357;DHT22;7778;48.792;9.260;2023-02-01T09:30:09;5.90;99.90
15357;DHT22;7778;48.792;9.260;2023-02-01T09:32:57;5.90;99.90
15357;DHT22;7778;48.792;9.260;2023-02-01T09:35:42;5.90;99.90
15357;DHT22;7778;48.792;9.260;2023-02-01T09:38:28;6.00;99.90
15357;DHT22;7778;48.792;9.260;2023-02-01T09:41:26;6.20;99.90
15357;DHT22;7778;48.792;9.260;2023-02-01T09:44:29;6.40;99.90
15357;DHT22;7778;48.792;9.260;2023-02-01T09:47:22;6.50;99.90
15357;DHT22;7778;48.792;9.260;2023-02-01T09:50:13;6.40;99.90
15357;DHT22;7778;48.792;9.260;2023-02-01T09:53:03;6.40;99.90
15357;DHT22;7778;48.792;9.260;2023-02-01T09:55:53;6.40;99.90
15357;DHT22;7778;48.792;9.260;2023-02-01T09:58:42;6.50;99.90
15357;DHT22;7778;48.792;9.260;2023-02-01T10:01:31;6.40;99.90
15357;DHT22;7778;48.792;9.260;2023-02-01T10:04:17;6.40;99.90
15357;DHT22;7778;48.792;9.260;2023-02-01T10:07:12;6.50;99.90
15357;DHT22;7778;48.792;9.260;2023-02-01T10:10:11;6.60;99.90
15357;DHT22;7778;48.792;9.260;2023-02-01T10:13:15;6.60;99.90
15357;DHT22;7778;48.792;9.260;2023-02-01T10:16:16;6.50;99.90
15357;DHT22;7778;48.792;9.260;2023-02-01T10:19:19;6.60;99.90
15357;DHT22;7778;48.792;9.260;2023-02-01T10:22:23;6.60;99.90
15357;DHT22;7778;48.792;9.260;2023-02-01T10:25:21;6.70;99.90
15357;DHT22;7778;48.792;9.260;2023-02-01T10:28:14;6.80;99.90
15357;DHT22;7778;48.792;9.260;2023-02-01T10:31:01;6.90;99.90
15357;DHT22;7778;48.792;9.260;2023-02-01T10:33:49;6.90;99.90
15357;DHT22;7778;48.792;9.260;2023-02-01T10:36:42;7.00;99.90
15357;DHT22;7778;48.792;9.260;2023-02-01T10:39:31;7.00;99.90
15357;DHT22;7778;48.792;9.260;2023-02-01T10:42:20;7.00;99.90
15357;DHT22;7778;48.792;9.260;2023-02-01T10:45:13;7.00;99.90
15357;DHT22;7778;48.792;9.260;2023-02-01T10:48:01;6.80;99.90
15357;DHT22;7778;48.792;9.260;2023-02-01T10:50:53;6.70;99.90
15357;DHT22;7778;48.792;9.260;2023-02-01T10:53:46;6.80;99.90
15357;DHT22;7778;48.792;9.260;2023-02-01T10:56:37;6.90;99.90
15357;DHT22;7778;48.792;9.260;2023-02-01T10:59:24;6.70;99.90
15357;DHT22;7778;48.792;9.260;2023-02-01T11:02:19;6.80;99.90
15357;DHT22;7778;48.792;9.260;2023-02-01T11:05:08;6.90;99.90
15357;DHT22;7778;48.792;9.260;2023-02-01T11:07:56;7.00;99.90
15357;DHT22;7778;48.792;9.260;2023-02-01T11:10:44;6.90;99.90
15357;DHT22;7778;48.792;9.260;2023-02-01T11:13:33;6.80;99.90
15357;DHT22;7778;48.792;9.260;2023-02-01T11:16:31;6.90;99.90
15357;DHT22;7778;48.792;9.260;2023-02-01T11:19:19;6.90;99.90
15357;DHT22;7778;48.792;9.260;2023-02-01T11:22:05;6.90;99.90
15357;DHT22;7778;48.792;9.260;2023-02-01T11:24:51;7.00;99.90
15357;DHT22;7778;48.792;9.260;2023-02-01T11:27:37;6.90;99.90
15357;DHT22;7778;48.792;9.260;2023-02-01T11:30:32;6.90;99.90
15357;DHT22;7778;48.792;9.260;2023-02-01T11:33:20;6.90;99.90
15357;DHT22;7778;48.792;9.260;2023-02-01T11:36:15;6.80;99.90
15357;DHT22;7778;48.792;9.260;2023-02-01T11:39:23;6.80;99.90
15357;DHT22;7778;48.792;9.260;2023-02-01T11:42:13;6.70;99.90
15357;DHT22;7778;48.792;9.260;2023-02-01T11:45:18;6.80;99.90
15357;DHT22;7778;48.792;9.260;2023-02-01T11:48:09;6.90;99.90
15357;DHT22;7778;48.792;9.260;2023-02-01T11:51:12;6.90;99.90
15357;DHT22;7778;48.792;9.260;2023-02-01T11:54:25;6.90;99.90
15357;DHT22;7778;48.792;9.260;2023-02-01T11:57:31;6.90;99.90
15357;DHT22;7778;48.792;9.260;2023-02-01T12:00:44;6.80;99.90
15357;DHT22;7778;48.792;9.260;2023-02-01T12:04:05;6.90;99.90
15357;DHT22;7778;48.792;9.260;2023-02-01T12:07:04;6.80;99.90
15357;DHT22;7778;48.792;9.260;2023-02-01T12:10:05;6.90;99.90
15357;DHT22;7778;48.792;9.260;2023-02-01T12:13:08;7.00;99.90
15357;DHT22;7778;48.792;9.260;2023-02-01T12:16:09;6.90;99.90
15357;DHT22;7778;48.792;9.260;2023-02-01T12:19:34;6.70;99.90
15357;DHT22;7778;48.792;9.260;2023-02-01T12:22:38;6.70;99.90
15357;DHT22;7778;48.792;9.260;2023-02-01T12:25:44;6.80;99.90
15357;DHT22;7778;48.792;9.260;2023-02-01T12:29:01;6.70;99.90
15357;DHT22;7778;48.792;9.260;2023-02-01T12:32:22;6.80;99.90
15357;DHT22;7778;48.792;9.260;2023-02-01T12:35:27;6.80;99.90
15357;DHT22;7778;48.792;9.260;2023-02-01T12:38:33;6.90;99.90
15357;DHT22;7778;48.792;9.260;2023-02-01T12:41:44;6.80;99.90
15357;DHT22;7778;48.792;9.260;2023-02-01T12:44:42;6.80;99.90
15357;DHT22;7778;48.792;9.260;2023-02-01T12:47:35;6.90;99.90
15357;DHT22;7778;48.792;9.260;2023-02-01T12:50:28;7.00;99.90
15357;DHT22;7778;48.792;9.260;2023-02-01T12:53:22;6.80;99.90
15357;DHT22;7778;48.792;9.260;2023-02-01T12:56:12;6.80;99.90
15357;DHT22;7778;48.792;9.260;2023-02-01T12:59:04;6.70;99.90
15357;DHT22;7778;48.792;9.260;2023-02-01T13:01:55;6.70;99.90
15357;DHT22;7778;48.792;9.260;2023-02-01T13:04:58;6.60;99.90
15357;DHT22;7778;48.792;9.260;2023-02-01T13:07:52;6.50;99.90
15357;DHT22;7778;48.792;9.260;2023-02-01T13:10:43;6.50;99.90
15357;DHT22;7778;48.792;9.260;2023-02-01T13:13:44;6.40;99.90
15357;DHT22;7778;48.792;9.260;2023-02-01T13:16:37;6.30;99.90
15357;DHT22;7778;48.792;9.260;2023-02-01T13:19:30;6.30;99.90
15357;DHT22;7778;48.792;9.260;2023-02-01T13:22:25;6.20;99.90
15357;DHT22;7778;48.792;9.260;2023-02-01T13:25:15;6.30;99.90
15357;DHT22;7778;48.792;9.260;2023-02-01T13:28:10;6.30;99.90
15357;DHT22;7778;48.792;9.260;2023-02-01T13:31:10;6.50;99.90
15357;DHT22;7778;48.792;9.260;2023-02-01T13:34:44;6.50;99.90
15357;DHT22;7778;48.792;9.260;2023-02-01T13:38:01;6.50;99.90
15357;DHT22;7778;48.792;9.260;2023-02-01T13:41:03;6.40;99.90
15357;DHT22;7778;48.792;9.260;2023-02-01T13:43:59;6.50;99.90
15357;DHT22;7778;48.792;9.260;2023-02-01T13:46:47;6.50;99.90
15357;DHT22;7778;48.792;9.260;2023-02-01T13:49:38;6.50;99.90
15357;DHT22;7778;48.792;9.260;2023-02-01T13:52:28;6.50;99.90
15357;DHT22;7778;48.792;9.260;2023-02-01T13:55:30;6.50;99.90
15357;DHT22;7778;48.792;9.260;2023-02-01T13:58:21;6.50;99.90
15357;DHT22;7778;48.792;9.260;2023-02-01T14:01:33;6.40;99.90
15357;DHT22;7778;48.792;9.260;2023-02-01T14:04:47;6.30;99.90
15357;DHT22;7778;48.792;9.260;2023-02-01T14:07:34;6.20;99.90
15357;DHT22;7778;48.792;9.260;2023-02-01T14:10:48;6.10;99.90
15357;DHT22;7778;48.792;9.260;2023-02-01T14:13:38;6.20;99.90
15357;DHT22;7778;48.792;9.260;2023-02-01T14:16:24;6.20;99.90
15357;DHT22;7778;48.792;9.260;2023-02-01T14:19:20;6.20;99.90
15357;DHT22;7778;48.792;9.260;2023-02-01T14:22:31;6.30;99.90
15357;DHT22;7778;48.792;9.260;2023-02-01T14:25:19;6.40;99.90
15357;DHT22;7778;48.792;9.260;2023-02-01T14:28:10;6.40;99.90
15357;DHT22;7778;48.792;9.260;2023-02-01T14:30:59;6.50;99.90
15357;DHT22;7778;48.792;9.260;2023-02-01T14:33:45;6.50;99.90
15357;DHT22;7778;48.792;9.260;2023-02-01T14:36:54;6.50;99.90
15357;DHT22;7778;48.792;9.260;2023-02-01T14:39:58;6.40;99.90
15357;DHT22;7778;48.792;9.260;2023-02-01T14:42:48;6.40;99.90
15357;DHT22;7778;48.792;9.260;2023-02-01T14:45:50;6.40;99.90
15357;DHT22;7778;48.792;9.260;2023-02-01T14:48:45;6.40;99.90
15357;DHT22;7778;48.792;9.260;2023-02-01T14:51:32;6.40;99.90
15357;DHT22;7778;48.792;9.260;2023-02-01T14:54:19;6.40;99.90
15357;DHT22;7778;48.792;9.260;2023-02-01T14:57:05;6.40;99.90
15357;DHT22;7778;48.792;9.260;2023-02-01T14:59:55;6.40;99.90
15357;DHT22;7778;48.792;9.260;2023-02-01T15:02:46;6.40;99.90
15357;DHT22;7778;48.792;9.260;2023-02-01T15:05:35;6.30;99.90
15357;DHT22;7778;48.792;9.260;2023-02-01T15:08:27;6.40;99.90
15357;DHT22;7778;48.792;9.260;2023-02-01T15:11:16;6.40;99.90
15357;DHT22;7778;48.792;9.260;2023-02-01T15:14:02;6.30;99.90
15357;DHT22;7778;48.792;9.260;2023-02-01T15:16:47;6.20;99.90
15357;DHT22;7778;48.792;9.260;2023-02-01T15:19:37;6.20;99.90
15357;DHT22;7778;48.792;9.260;2023-02-01T15:22:25;6.20;99.90
15357;DHT22;7778;48.792;9.260;2023-02-01T15:25:19;6.20;99.90
15357;DHT22;7778;48.792;9.260;2023-02-01T15:28:12;6.20;99.90
15357;DHT22;7778;48.792;9.260;2023-02-01T15:31:00;6.20;99.90
15357;DHT22;7778;48.792;9.260;2023-02-01T15:33:55;6.40;99.90
15357;DHT22;7778;48.792;9.260;2023-02-01T15:36:43;6.20;99.90
15357;DHT22;7778;48.792;9.260;2023-02-01T15:39:30;6.30;99.90
15357;DHT22;7778;48.792;9.260;2023-02-01T15:42:18;6.30;99.90
15357;DHT22;7778;48.792;9.260;2023-02-01T15:45:13;6.20;99.90
15357;DHT22;7778;48.792;9.260;2023-02-01T15:48:01;6.20;99.90
15357;DHT22;7778;48.792;9.260;2023-02-01T15:50:48;6.20;99.90
15357;DHT22;7778;48.792;9.260;2023-02-01T15:53:34;6.30;99.90
15357;DHT22;7778;48.792;9.260;2023-02-01T15:56:28;6.30;99.90
15357;DHT22;7778;48.792;9.260;2023-02-01T15:59:32;6.30;99.90
15357;DHT22;7778;48.792;9.260;2023-02-01T16:02:33;6.20;99.90
15357;DHT22;7778;48.792;9.260;2023-02-01T16:05:31;6.20;99.90
15357;DHT22;7778;48.792;9.260;2023-02-01T16:08:23;6.30;99.90
15357;DHT22;7778;48.792;9.260;2023-02-01T16:11:25;6.30;99.90
15357;DHT22;7778;48.792;9.260;2023-02-01T16:14:14;6.20;99.90
15357;DHT22;7778;48.792;9.260;2023-02-01T16:17:00;6.30;99.90
15357;DHT22;7778;48.792;9.260;2023-02-01T16:19:46;6.20;99.90
15357;DHT22;7778;48.792;9.260;2023-02-01T16:22:32;6.20;99.90
15357;DHT22;7778;48.792;9.260;2023-02-01T16:25:18;6.20;99.90
15357;DHT22;7778;48.792;9.260;2023-02-01T16:31:26;6.20;99.90
15357;DHT22;7778;48.792;9.260;2023-02-01T16:34:15;6.20;99.90
15357;DHT22;7778;48.792;9.260;2023-02-01T16:37:03;6.20;99.90
15357;DHT22;7778;48.792;9.260;2023-02-01T16:39:49;6.20;99.90
15357;DHT22;7778;48.792;9.260;2023-02-01T16:42:37;6.30;99.90
15357;DHT22;7778;48.792;9.260;2023-02-01T16:45:25;6.20;99.90
15357;DHT22;7778;48.792;9.260;2023-02-01T16:48:17;6.30;99.90
15357;DHT22;7778;48.792;9.260;2023-02-01T16:51:12;6.20;99.90
15357;DHT22;7778;48.792;9.260;2023-02-01T16:53:59;6.20;99.90
15357;DHT22;7778;48.792;9.260;2023-02-01T16:56:45;6.20;99.90
15357;DHT22;7778;48.792;9.260;2023-02-01T16:59:31;6.10;99.90
15357;DHT22;7778;48.792;9.260;2023-02-01T17:02:19;6.10;99.90
15357;DHT22;7778;48.792;9.260;2023-02-01T17:05:06;6.10;99.90
15357;DHT22;7778;48.792;9.260;2023-02-01T17:07:52;6.00;99.90
15357;DHT22;7778;48.792;9.260;2023-02-01T17:10:38;6.00;99.90
15357;DHT22;7778;48.792;9.260;2023-02-01T17:13:24;6.00;99.90
15357;DHT22;7778;48.792;9.260;2023-02-01T17:16:19;6.00;99.90
15357;DHT22;7778;48.792;9.260;2023-02-01T17:19:11;6.00;99.90
15357;DHT22;7778;48.792;9.260;2023-02-01T17:21:59;6.00;99.90
15357;DHT22;7778;48.792;9.260;2023-02-01T17:24:44;6.10;99.90
15357;DHT22;7778;48.792;9.260;2023-02-01T17:27:30;6.20;99.90
15357;DHT22;7778;48.792;9.260;2023-02-01T17:30:17;6.10;99.90
15357;DHT22;7778;48.792;9.260;2023-02-01T17:33:03;6.10;99.90
15357;DHT22;7778;48.792;9.260;2023-02-01T17:35:50;6.10;99.90
15357;DHT22;7778;48.792;9.260;2023-02-01T17:38:38;6.20;99.90
15357;DHT22;7778;48.792;9.260;2023-02-01T17:41:24;6.10;99.90
15357;DHT22;7778;48.792;9.260;2023-02-01T17:44:10;6.10;99.90
15357;DHT22;7778;48.792;9.260;2023-02-01T17:46:57;6.10;99.90
15357;DHT22;7778;48.792;9.260;2023-02-01T17:49:43;6.10;99.90
15357;DHT22;7778;48.792;9.260;2023-02-01T17:52:30;6.20;99.90
15357;DHT22;7778;48.792;9.260;2023-02-01T17:55:17;6.20;99.90
15357;DHT22;7778;48.792;9.260;2023-02-01T17:58:05;6.20;99.90
15357;DHT22;7778;48.792;9.260;2023-02-01T18:00:51;6.20;99.90
15357;DHT22;7778;48.792;9.260;2023-02-01T18:03:38;6.10;99.90
15357;DHT22;7778;48.792;9.260;2023-02-01T18:06:25;6.10;99.90
15357;DHT22;7778;48.792;9.260;2023-02-01T18:09:13;6.00;99.90
15357;DHT22;7778;48.792;9.260;2023-02-01T18:11:59;6.00;99.90
15357;DHT22;7778;48.792;9.260;2023-02-01T18:14:44;6.10;99.90
15357;DHT22;7778;48.792;9.260;2023-02-01T18:17:30;6.00;99.90
15357;DHT22;7778;48.792;9.260;2023-02-01T18:20:18;6.00;99.90
15357;DHT22;7778;48.792;9.260;2023-02-01T18:23:04;6.00;99.90
15357;DHT22;7778;48.792;9.260;2023-02-01T18:25:51;6.00;99.90
15357;DHT22;7778;48.792;9.260;2023-02-01T18:28:37;6.00;99.90
15357;DHT22;7778;48.792;9.260;2023-02-01T18:31:26;6.10;99.90
15357;DHT22;7778;48.792;9.260;2023-02-01T18:34:14;6.10;99.90
15357;DHT22;7778;48.792;9.260;2023-02-01T18:37:05;6.10;99.90
15357;DHT22;7778;48.792;9.260;2023-02-01T18:39:51;6.00;99.90
15357;DHT22;7778;48.792;9.260;2023-02-01T18:42:38;6.10;99.90
15357;DHT22;7778;48.792;9.260;2023-02-01T18:45:33;6.20;99.90